Time;durP1;ratioP1;P1;durP2;ratioP2;P2;SDS_P1;SDS_P2;PMS_P1;PMS_P2;Temp;Humidity;BMP_temperature;BMP_pressure;BME280_temperature;BME280_humidity;BME280_pressure;Samples;Min_cycle;Max_cycle;Signal;HPM_P1;HPM_P2
2021/12/21 00:00:11;;;;;;;;;;;;;;;;;;5059617;28;19924;-67
2021/12/21 00:02:53;;;;;;;;;;;;;;;;;;5081973;28;20002;-67
2021/12/21 00:05:26;;;;;;;;;;;;;;;;;;5088287;28;19936;-67
2021/12/21 00:07:56;;;;;;;;;;;;;;;;;;5081087;28;19973;-67
2021/12/21 00:10:28;;;;;;;;;;;;;;;;;;5085671;28;19924;-67
2021/12/21 00:13:04;;;;;;;;;;;;;;;;;;5088336;28;19924;-67
2021/12/21 00:15:59;;;;;;;;;;;;;;;;;;5083658;28;19924;-66
2021/12/21 00:21:23;;;;;;;;;;;;;;;;;;5083011;28;19932;-66
2021/12/21 00:23:57;;;;;;;;;;;;;;;;;;5086265;28;19925;-67
2021/12/21 00:26:26;;;;;;;;;;;;;;;;;;5084290;28;19928;-67
2021/12/21 00:29:02;;;;;;;;;;;;;;;;;;5094494;28;19955;-67
2021/12/21 00:31:31;;;;;;;;;;;;;;;;;;5086595;28;19930;-67
2021/12/21 00:34:00;;;;;;;;;;;;;;;;;;5079633;28;19943;-67
2021/12/21 00:36:29;;;;;;;;;;;;;;;;;;5087707;28;19976;-67
2021/12/21 00:38:58;;;;;;;;;;;;;;;;;;5092310;28;20342;-67
2021/12/21 00:41:26;;;;;;;;;;;;;;;;;;5087328;28;19935;-67
2021/12/21 00:43:56;;;;;;;;;;;;;;;;;;5081978;28;20022;-67
2021/12/21 00:46:25;;;;;;;;;;;;;;;;;;5091100;28;19998;-67
2021/12/21 00:49:01;;;;;;;;;;;;;;;;;;5090516;28;19943;-67
2021/12/21 00:51:37;;;;;;;;;;;;;;;;;;5086962;28;19942;-67
2021/12/21 00:54:07;;;;;;;;;;;;;;;;;;5085674;28;19924;-66
2021/12/21 00:56:37;;;;;;;;;;;;;;;;;;5090173;28;19935;-66
2021/12/21 00:59:12;;;;;;;;;;;;;;;;;;5087524;28;19924;-66
2021/12/21 01:01:42;;;;;;;;;;;;;;;;;;5087069;28;19981;-66
2021/12/21 01:04:23;;;;;;;;;;;;;;;;;;5087927;28;19924;-67
2021/12/21 01:12:11;;;;;;;;;;;;;;;;;;5085619;28;20370;-67
2021/12/21 01:15:13;;;;;;;;;;;;;;;;;;5086496;28;20253;-67
2021/12/21 01:18:11;;;;;;;;;;;;;;;;;;5087301;28;20375;-67
2021/12/21 01:20:48;;;;;;;;;;;;;;;;;;5095273;28;19924;-67
2021/12/21 01:23:53;;;;;;;;;;;;;;;;;;5088035;28;20528;-67
2021/12/21 01:29:31;;;;;;;;;;;;;;;;;;5089353;28;20006;-67
2021/12/21 01:32:28;;;;;;;;;;;;;;;;;;5083749;28;19928;-66
2021/12/21 01:35:07;;;;;;;;;;;;;;;;;;5084480;28;19939;-66
2021/12/21 01:37:56;;;;;;;;;;;;;;;;;;5089711;28;19931;-66
2021/12/21 01:40:39;;;;;;;;;;;;;;;;;;5088566;28;19924;-66
2021/12/21 01:51:36;;;;;;;;;;;;;;;;;;5087342;28;20451;-66
2021/12/21 01:54:07;;;;;;;;;;;;;;;;;;5081155;28;19924;-66
2021/12/21 01:56:50;;;;;;;;;;;;;;;;;;5088828;28;20349;-66
2021/12/21 01:59:22;;;;;;;;;;;;;;;;;;5085745;28;20358;-66
2021/12/21 02:01:52;;;;;;;;;;;;;;;;;;5066137;28;20370;-66
2021/12/21 02:04:24;;;;;;;;;;;;;;;;;;5077493;28;19932;-66
2021/12/21 02:06:54;;;;;;;;;;;;;;;;;;5084789;28;19924;-66
2021/12/21 02:09:32;;;;;;;;;;;;;;;;;;5085338;28;19932;-66
2021/12/21 02:12:04;;;;;;;;;;;;;;;;;;5083558;28;19923;-66
2021/12/21 02:14:34;;;;;;;;;;;;;;;;;;5081345;28;20410;-66
2021/12/21 02:20:01;;;;;;;;;;;;;;;;;;5086826;28;19924;-66
2021/12/21 02:22:33;;;;;;;;;;;;;;;;;;5085840;28;19928;-66
2021/12/21 02:30:52;;;;;;;;;;;;;;;;;;5080398;28;20479;-67
2021/12/21 02:33:20;;;;;;;;;;;;;;;;;;5081978;28;19950;-67
2021/12/21 02:35:51;;;;;;;;;;;;;;;;;;5080788;28;19924;-67
2021/12/21 02:38:21;;;;;;;;;;;;;;;;;;5086024;28;19931;-67
2021/12/21 02:40:50;;;;;;;;;;;;;;;;;;5083336;28;19937;-67
2021/12/21 02:43:20;;;;;;;;;;;;;;;;;;5074995;28;19925;-66
2021/12/21 02:45:51;;;;;;;;;;;;;;;;;;5080167;28;19924;-66
2021/12/21 02:48:21;;;;;;;;;;;;;;;;;;5082815;28;20322;-67
2021/12/21 02:50:50;;;;;;;;;;;;;;;;;;5085176;28;20477;-66
2021/12/21 02:53:19;;;;;;;;;;;;;;;;;;5073241;28;19931;-66
2021/12/21 02:55:46;;;;;;;;;;;;;;;;;;5079175;28;19932;-66
2021/12/21 02:58:16;;;;;;;;;;;;;;;;;;5077356;28;19924;-67
2021/12/21 03:00:47;;;;;;;;;;;;;;;;;;5083368;28;19931;-66
2021/12/21 03:03:18;;;;;;;;;;;;;;;;;;5085621;28;19924;-66
2021/12/21 03:05:52;;;;;;;;;;;;;;;;;;5080919;28;19924;-66
2021/12/21 03:08:25;;;;;;;;;;;;;;;;;;5079438;28;19928;-66
2021/12/21 03:11:16;;;;;;;;;;;;;;;;;;5081756;28;19928;-67
2021/12/21 03:14:03;;;;;;;;;;;;;;;;;;5081999;28;19935;-66
2021/12/21 03:16:34;;;;;;;;;;;;;;;;;;5087426;28;19928;-66
2021/12/21 03:19:06;;;;;;;;;;;;;;;;;;5081189;28;19924;-66
2021/12/21 03:21:34;;;;;;;;;;;;;;;;;;5079136;28;20345;-66
2021/12/21 03:24:04;;;;;;;;;;;;;;;;;;5086612;28;19924;-66
2021/12/21 03:26:34;;;;;;;;;;;;;;;;;;5079621;28;19932;-66
2021/12/21 03:29:04;;;;;;;;;;;;;;;;;;5085042;28;20018;-67
2021/12/21 03:31:35;;;;;;;;;;;;;;;;;;5076471;28;20419;-67
2021/12/21 03:34:07;;;;;;;;;;;;;;;;;;5083362;28;19939;-67
2021/12/21 03:36:38;;;;;;;;;;;;;;;;;;5084803;28;19928;-67
2021/12/21 03:39:17;;;;;;;;;;;;;;;;;;5081002;28;19943;-67
2021/12/21 03:41:57;;;;;;;;;;;;;;;;;;5082116;28;19931;-67
2021/12/21 03:44:25;;;;;;;;;;;;;;;;;;5083118;28;19928;-67
2021/12/21 03:46:57;;;;;;;;;;;;;;;;;;5084748;28;19932;-67
2021/12/21 03:51:58;;;;;;;;;;;;;;;;;;5074403;28;19927;-67
2021/12/21 03:54:28;;;;;;;;;;;;;;;;;;5081085;28;19939;-67
2021/12/21 03:57:00;;;;;;;;;;;;;;;;;;5064076;28;20288;-66
2021/12/21 03:59:36;;;;;;;;;;;;;;;;;;5087066;28;19928;-66
2021/12/21 04:02:08;;;;;;;;;;;;;;;;;;5082990;28;20330;-67
2021/12/21 04:04:41;;;;;;;;;;;;;;;;;;5082985;28;19924;-66
2021/12/21 04:07:10;;;;;;;;;;;;;;;;;;5081096;28;19928;-66
2021/12/21 04:09:43;;;;;;;;;;;;;;;;;;5079524;28;19928;-67
2021/12/21 04:12:26;;;;;;;;;;;;;;;;;;5082302;28;20070;-67
2021/12/21 04:15:02;;;;;;;;;;;;;;;;;;5084763;28;20369;-67
2021/12/21 04:17:43;;;;;;;;;;;;;;;;;;5075182;28;19932;-67
2021/12/21 04:20:18;;;;;;;;;;;;;;;;;;5071297;28;19924;-67
2021/12/21 04:22:49;;;;;;;;;;;;;;;;;;5083887;28;19931;-66
2021/12/21 04:25:22;;;;;;;;;;;;;;;;;;5086509;28;19932;-66
2021/12/21 04:27:52;;;;;;;;;;;;;;;;;;5077883;28;20000;-67
2021/12/21 04:30:24;;;;;;;;;;;;;;;;;;5076576;28;19939;-66
2021/12/21 04:32:54;;;;;;;;;;;;;;;;;;5082946;28;19980;-66
2021/12/21 04:35:25;;;;;;;;;;;;;;;;;;5084649;28;19979;-66
2021/12/21 04:38:13;;;;;;;;;;;;;;;;;;5079797;28;19965;-67
2021/12/21 04:40:47;;;;;;;;;;;;;;;;;;5074317;28;19985;-67
2021/12/21 04:43:16;;;;;;;;;;;;;;;;;;5082705;28;19924;-67
2021/12/21 04:45:48;;;;;;;;;;;;;;;;;;5083956;28;19995;-66
2021/12/21 04:48:19;;;;;;;;;;;;;;;;;;5076729;28;19929;-66
2021/12/21 04:50:47;;;;;;;;;;;;;;;;;;5081248;28;19924;-67
2021/12/21 04:53:18;;;;;;;;;;;;;;;;;;5083769;28;20346;-67
2021/12/21 04:55:47;;;;;;;;;;;;;;;;;;5077468;28;19924;-67
2021/12/21 04:58:17;;;;;;;;;;;;;;;;;;5076264;28;19933;-67
2021/12/21 05:00:47;;;;;;;;;;;;;;;;;;5082328;28;19931;-67
2021/12/21 05:03:28;;;;;;;;;;;;;;;;;;5079379;28;20007;-67
2021/12/21 05:05:59;;;;;;;;;;;;;;;;;;5081651;28;19939;-66
2021/12/21 05:08:32;;;;;;;;;;;;;;;;;;5080868;28;19929;-67
2021/12/21 05:11:04;;;;;;;;;;;;;;;;;;5078817;28;19965;-67
2021/12/21 05:13:34;;;;;;;;;;;;;;;;;;5076389;28;20536;-67
2021/12/21 05:16:06;;;;;;;;;;;;;;;;;;5081389;28;20574;-67
2021/12/21 05:18:37;;;;;;;;;;;;;;;;;;5081299;28;19935;-66
2021/12/21 05:21:04;;;;;;;;;;;;;;;;;;5087422;28;19954;-66
2021/12/21 05:23:32;;;;;;;;;;;;;;;;;;5088715;28;19960;-67
2021/12/21 05:26:03;;;;;;;;;;;;;;;;;;5080972;28;19934;-67
2021/12/21 05:28:32;;;;;;;;;;;;;;;;;;5080735;28;20442;-67
2021/12/21 05:31:01;;;;;;;;;;;;;;;;;;5078181;28;19928;-66
2021/12/21 05:33:35;;;;;;;;;;;;;;;;;;5085040;28;20396;-67
2021/12/21 05:36:05;;;;;;;;;;;;;;;;;;5073018;28;20624;-67
2021/12/21 05:38:35;;;;;;;;;;;;;;;;;;5077997;28;19985;-67
2021/12/21 05:41:06;;;;;;;;;;;;;;;;;;5083395;28;20268;-67
2021/12/21 05:43:42;;;;;;;;;;;;;;;;;;5079289;28;19927;-67
2021/12/21 05:46:15;;;;;;;;;;;;;;;;;;5087423;28;19924;-67
2021/12/21 05:48:48;;;;;;;;;;;;;;;;;;5086027;28;20401;-66
2021/12/21 05:51:33;;;;;;;;;;;;;;;;;;5087898;28;19955;-66
2021/12/21 05:54:02;;;;;;;;;;;;;;;;;;5084025;28;19984;-67
2021/12/21 05:56:31;;;;;;;;;;;;;;;;;;5085837;28;19932;-67
2021/12/21 05:59:02;;;;;;;;;;;;;;;;;;5082459;28;19949;-66
2021/12/21 06:01:32;;;;;;;;;;;;;;;;;;5071152;28;19924;-67
2021/12/21 06:04:02;;;;;;;;;;;;;;;;;;5083870;28;19984;-66
2021/12/21 06:06:35;;;;;;;;;;;;;;;;;;5071977;28;19939;-67
2021/12/21 06:09:08;;;;;;;;;;;;;;;;;;5088528;28;19924;-67
2021/12/21 06:12:03;;;;;;;;;;;;;;;;;;5084349;28;19931;-68
2021/12/21 06:15:40;;;;;;;;;;;;;;;;;;5085359;28;19927;-67
2021/12/21 06:23:59;;;;;;;;;;;;;;;;;;5083808;28;19932;-67
2021/12/21 06:26:10;;;;;;;;;;;;;;;;;;5080970;28;19928;-67
2021/12/21 06:28:57;;;;;;;;;;;;;;;;;;5086776;28;19924;-68
2021/12/21 06:31:30;;;;;;;;;;;;;;;;;;5084466;28;20355;-67
2021/12/21 06:34:12;;;;;;;;;;;;;;;;;;5077869;28;19920;-67
2021/12/21 06:36:41;;;;;;;;;;;;;;;;;;5082343;28;20362;-67
2021/12/21 06:39:12;;;;;;;;;;;;;;;;;;5084225;28;20007;-67
2021/12/21 06:41:43;;;;;;;;;;;;;;;;;;5087758;28;19928;-68
2021/12/21 06:44:16;;;;;;;;;;;;;;;;;;5091114;28;20458;-68
2021/12/21 06:52:26;;;;;;;;;;;;;;;;;;5085818;28;19935;-67
2021/12/21 06:54:56;;;;;;;;;;;;;;;;;;5080683;28;19924;-67
2021/12/21 06:57:27;;;;;;;;;;;;;;;;;;5081226;28;19923;-67
2021/12/21 07:00:10;;;;;;;;;;;;;;;;;;5080612;28;19920;-67
2021/12/21 07:02:39;;;;;;;;;;;;;;;;;;5070418;28;19936;-68
2021/12/21 07:05:10;;;;;;;;;;;;;;;;;;5065067;28;20242;-67
2021/12/21 07:07:40;;;;;;;;;;;;;;;;;;5055885;28;20442;-67
2021/12/21 07:10:20;;;;;;;;;;;;;;;;;;5053918;28;19934;-67
2021/12/21 07:18:24;;;;;;;;;;;;;;;;;;5059538;28;20414;-67
2021/12/21 07:20:55;;;;;;;;;;;;;;;;;;5057965;28;19924;-67
2021/12/21 07:23:26;;;;;;;;;;;;;;;;;;5059619;28;19928;-67
2021/12/21 07:25:56;;;;;;;;;;;;;;;;;;5059439;28;19932;-67
2021/12/21 07:28:27;;;;;;;;;;;;;;;;;;5057754;28;19934;-67
2021/12/21 07:30:57;;;;;;;;;;;;;;;;;;5066336;28;19933;-67
2021/12/21 07:33:34;;;;;;;;;;;;;;;;;;5062024;28;19943;-67
2021/12/21 07:36:04;;;;;;;;;;;;;;;;;;5056496;28;19928;-68
2021/12/21 07:38:33;;;;;;;;;;;;;;;;;;5049921;28;20605;-67
2021/12/21 07:41:04;;;;;;;;;;;;;;;;;;5065853;28;20264;-68
2021/12/21 07:43:34;;;;;;;;;;;;;;;;;;5063527;28;19938;-69
2021/12/21 07:46:05;;;;;;;;;;;;;;;;;;5059159;28;19932;-71
2021/12/21 07:48:40;;;;;;;;;;;;;;;;;;5063360;28;20306;-70
2021/12/21 07:51:14;;;;;;;;;;;;;;;;;;5060985;28;19928;-71
2021/12/21 07:53:45;;;;;;;;;;;;;;;;;;5058387;28;19932;-71
2021/12/21 07:56:18;;;;;;;;;;;;;;;;;;5059076;28;19929;-70
2021/12/21 07:58:49;;;;;;;;;;;;;;;;;;5062323;28;19928;-70
2021/12/21 08:01:18;;;;;;;;;;;;;;;;;;5063588;28;19925;-71
2021/12/21 08:03:52;;;;;;;;;;;;;;;;;;5058928;28;19928;-71
2021/12/21 08:06:27;;;;;;;;;;;;;;;;;;5056891;28;20020;-68
2021/12/21 08:08:59;;;;;;;;;;;;;;;;;;5058250;28;19924;-71
2021/12/21 08:14:06;;;;;;;;;;;;;;;;;;5060416;28;19928;-70
2021/12/21 08:16:35;;;;;;;;;;;;;;;;;;5060350;28;19943;-70
2021/12/21 08:19:04;;;;;;;;;;;;;;;;;;5043123;28;19925;-70
2021/12/21 08:21:35;;;;;;;;;;;;;;;;;;5057869;28;19935;-70
2021/12/21 08:24:05;;;;;;;;;;;;;;;;;;5055812;28;19933;-69
2021/12/21 08:26:34;;;;;;;;;;;;;;;;;;5062744;28;19948;-70
2021/12/21 08:29:05;;;;;;;;;;;;;;;;;;5058397;28;20409;-70
2021/12/21 08:31:35;;;;;;;;;;;;;;;;;;5062413;28;19951;-69
2021/12/21 08:34:04;;;;;;;;;;;;;;;;;;5061624;28;19962;-69
2021/12/21 08:36:34;;;;;;;;;;;;;;;;;;5054433;28;19982;-69
2021/12/21 08:39:07;;;;;;;;;;;;;;;;;;5060368;28;20505;-68
2021/12/21 08:41:40;;;;;;;;;;;;;;;;;;5044516;28;19951;-69
2021/12/21 08:44:10;;;;;;;;;;;;;;;;;;5055860;28;19935;-70
2021/12/21 08:46:40;;;;;;;;;;;;;;;;;;5056230;28;19924;-69
2021/12/21 08:49:09;;;;;;;;;;;;;;;;;;5067118;28;19924;-69
2021/12/21 08:51:39;;;;;;;;;;;;;;;;;;5058277;28;19929;-69
2021/12/21 08:54:11;;;;;;;;;;;;;;;;;;5060834;28;20405;-70
2021/12/21 08:56:44;;;;;;;;;;;;;;;;;;5069103;28;19932;-70
2021/12/21 08:59:15;;;;;;;;;;;;;;;;;;5067497;28;19925;-70
2021/12/21 09:01:46;;;;;;;;;;;;;;;;;;5062708;28;19924;-70
2021/12/21 09:04:20;;;;;;;;;;;;;;;;;;5064939;28;19925;-70
2021/12/21 09:06:53;;;;;;;;;;;;;;;;;;5065001;28;19924;-69
2021/12/21 09:09:22;;;;;;;;;;;;;;;;;;5068951;28;20362;-71
2021/12/21 09:11:52;;;;;;;;;;;;;;;;;;5056352;28;19989;-70
2021/12/21 09:14:31;;;;;;;;;;;;;;;;;;5069011;28;19929;-70
2021/12/21 09:17:03;;;;;;;;;;;;;;;;;;5061299;28;19928;-70
2021/12/21 09:19:32;;;;;;;;;;;;;;;;;;5054634;28;19934;-70
2021/12/21 09:22:02;;;;;;;;;;;;;;;;;;5054617;28;19924;-72
2021/12/21 09:24:40;;;;;;;;;;;;;;;;;;5068419;28;19931;-72
2021/12/21 09:27:09;;;;;;;;;;;;;;;;;;5066971;28;19924;-73
2021/12/21 09:29:38;;;;;;;;;;;;;;;;;;5065885;28;19966;-73
2021/12/21 09:32:13;;;;;;;;;;;;;;;;;;5063932;28;20720;-71
2021/12/21 09:34:44;;;;;;;;;;;;;;;;;;5060825;28;19929;-70
2021/12/21 09:37:18;;;;;;;;;;;;;;;;;;5068073;28;20514;-72
2021/12/21 09:39:48;;;;;;;;;;;;;;;;;;5042842;28;20187;-73
2021/12/21 09:42:19;;;;;;;;;;;;;;;;;;5064577;28;20009;-71
2021/12/21 09:44:49;;;;;;;;;;;;;;;;;;5058234;28;19933;-71
2021/12/21 09:47:19;;;;;;;;;;;;;;;;;;5070962;28;19928;-72
2021/12/21 09:49:50;;;;;;;;;;;;;;;;;;5069538;28;20405;-73
2021/12/21 09:52:23;;;;;;;;;;;;;;;;;;5066996;28;19929;-70
2021/12/21 09:54:52;;;;;;;;;;;;;;;;;;5059923;28;19925;-71
2021/12/21 09:57:22;;;;;;;;;;;;;;;;;;5059546;28;19940;-72
2021/12/21 09:59:52;;;;;;;;;;;;;;;;;;5060634;28;19924;-72
2021/12/21 10:02:22;;;;;;;;;;;;;;;;;;5048145;28;19928;-71
2021/12/21 10:04:51;;;;;;;;;;;;;;;;;;5066463;28;19962;-71
2021/12/21 10:07:25;;;;;;;;;;;;;;;;;;5055708;28;19940;-72
2021/12/21 10:09:55;;;;;;;;;;;;;;;;;;5064441;28;19928;-72
2021/12/21 10:12:25;;;;;;;;;;;;;;;;;;5063151;28;19939;-71
2021/12/21 10:14:54;;;;;;;;;;;;;;;;;;5075347;28;19928;-72
2021/12/21 10:17:24;;;;;;;;;;;;;;;;;;5071637;28;20058;-74
2021/12/21 10:19:55;;;;;;;;;;;;;;;;;;5042933;28;19932;-73
2021/12/21 10:22:25;;;;;;;;;;;;;;;;;;5044905;28;19935;-72
2021/12/21 10:24:53;;;;;;;;;;;;;;;;;;5062552;28;19929;-72
2021/12/21 10:27:24;;;;;;;;;;;;;;;;;;5063852;28;19936;-75
2021/12/21 10:29:54;;;;;;;;;;;;;;;;;;5073930;28;19924;-74
2021/12/21 10:32:25;;;;;;;;;;;;;;;;;;5067626;28;19928;-75
2021/12/21 10:34:55;;;;;;;;;;;;;;;;;;5071679;28;19996;-73
2021/12/21 10:37:27;;;;;;;;;;;;;;;;;;5069628;28;19937;-72
2021/12/21 10:39:57;;;;;;;;;;;;;;;;;;5058503;28;19925;-72
2021/12/21 10:42:26;;;;;;;;;;;;;;;;;;5060924;28;19928;-73
2021/12/21 10:44:54;;;;;;;;;;;;;;;;;;5060628;28;19943;-73
2021/12/21 10:47:26;;;;;;;;;;;;;;;;;;5065983;28;19933;-72
2021/12/21 10:49:55;;;;;;;;;;;;;;;;;;5063920;28;19932;-72
2021/12/21 10:52:26;;;;;;;;;;;;;;;;;;5048430;28;19935;-73
2021/12/21 10:54:54;;;;;;;;;;;;;;;;;;5066447;28;19959;-74
2021/12/21 10:57:22;;;;;;;;;;;;;;;;;;5060159;28;19933;-74
2021/12/21 10:59:55;;;;;;;;;;;;;;;;;;5056571;28;19981;-74
2021/12/21 11:02:25;;;;;;;;;;;;;;;;;;5070758;28;19931;-73
2021/12/21 11:04:58;;;;;;;;;;;;;;;;;;5086287;28;19932;-74
2021/12/21 11:07:46;;;;;;;;;;;;;;;;;;5084303;28;20362;-68
2021/12/21 11:10:30;;;;;;;;;;;;;;;;;;5082558;28;19963;-68
2021/12/21 11:13:10;;;;;;;;;;;;;;;;;;5080404;28;19931;-69
2021/12/21 11:15:40;;;;;;;;;;;;;;;;;;5086957;28;20004;-67
2021/12/21 11:18:10;;;;;;;;;;;;;;;;;;5079322;28;19925;-67
2021/12/21 11:20:45;;;;;;;;;;;;;;;;;;5079376;28;19928;-68
2021/12/21 11:23:15;;;;;;;;;;;;;;;;;;5084939;28;19924;-68
2021/12/21 11:25:48;;;;;;;;;;;;;;;;;;5082615;28;19935;-66
2021/12/21 11:28:21;;;;;;;;;;;;;;;;;;5085440;28;19928;-66
2021/12/21 11:30:50;;;;;;;;;;;;;;;;;;5069030;28;19963;-68
2021/12/21 11:33:18;;;;;;;;;;;;;;;;;;5077609;28;19993;-68
2021/12/21 11:38:44;;;;;;;;;;;;;;;;;;5091100;28;19923;-70
2021/12/21 11:41:13;;;;;;;;;;;;;;;;;;5082954;28;19946;-71
2021/12/21 11:43:43;;;;;;;;;;;;;;;;;;5085034;28;19931;-71
2021/12/21 11:46:12;;;;;;;;;;;;;;;;;;5061897;28;19928;-71
2021/12/21 11:48:43;;;;;;;;;;;;;;;;;;5085400;28;19928;-71
2021/12/21 11:51:14;;;;;;;;;;;;;;;;;;5083544;28;19973;-71
2021/12/21 11:53:47;;;;;;;;;;;;;;;;;;5091724;28;20279;-71
2021/12/21 11:56:22;;;;;;;;;;;;;;;;;;5079227;28;19932;-72
2021/12/21 11:58:51;;;;;;;;;;;;;;;;;;5085608;28;19924;-71
2021/12/21 12:01:20;;;;;;;;;;;;;;;;;;5069138;28;19936;-71
2021/12/21 12:03:48;;;;;;;;;;;;;;;;;;5080908;28;19930;-71
2021/12/21 12:06:17;;;;;;;;;;;;;;;;;;5066373;28;19932;-71
2021/12/21 12:08:54;;;;;;;;;;;;;;;;;;5079375;28;20458;-71
2021/12/21 12:11:29;;;;;;;;;;;;;;;;;;5088113;28;19928;-70
2021/12/21 12:13:57;;;;;;;;;;;;;;;;;;5085821;28;19932;-70
2021/12/21 12:16:24;;;;;;;;;;;;;;;;;;5088448;28;19924;-71
2021/12/21 12:18:53;;;;;;;;;;;;;;;;;;5062145;28;19935;-70
2021/12/21 12:21:24;;;;;;;;;;;;;;;;;;5083891;28;19931;-70
2021/12/21 12:23:55;;;;;;;;;;;;;;;;;;5085999;28;19924;-69
2021/12/21 12:26:27;;;;;;;;;;;;;;;;;;5089642;28;19928;-70
2021/12/21 12:28:55;;;;;;;;;;;;;;;;;;5070160;28;19942;-71
2021/12/21 12:31:25;;;;;;;;;;;;;;;;;;5089270;28;19924;-71
2021/12/21 12:33:59;;;;;;;;;;;;;;;;;;5090567;28;20465;-70
2021/12/21 12:36:36;;;;;;;;;;;;;;;;;;5091033;28;20013;-70
2021/12/21 12:39:05;;;;;;;;;;;;;;;;;;5088388;28;20453;-70
2021/12/21 12:41:50;;;;;;;;;;;;;;;;;;5086173;28;19963;-69
2021/12/21 12:44:23;;;;;;;;;;;;;;;;;;5084355;28;20346;-70
2021/12/21 12:46:53;;;;;;;;;;;;;;;;;;5083632;28;19937;-71
2021/12/21 12:49:22;;;;;;;;;;;;;;;;;;5084887;28;19944;-70
2021/12/21 12:51:57;;;;;;;;;;;;;;;;;;5084601;28;19932;-69
2021/12/21 12:54:26;;;;;;;;;;;;;;;;;;5084246;28;19932;-69
2021/12/21 12:56:56;;;;;;;;;;;;;;;;;;5084470;28;19939;-71
2021/12/21 12:59:25;;;;;;;;;;;;;;;;;;5085035;28;19936;-72
2021/12/21 13:01:58;;;;;;;;;;;;;;;;;;5084583;28;20332;-70
2021/12/21 13:04:33;;;;;;;;;;;;;;;;;;5085786;28;19924;-70
2021/12/21 13:07:05;;;;;;;;;;;;;;;;;;5087242;28;19967;-68
2021/12/21 13:09:35;;;;;;;;;;;;;;;;;;5091094;28;19932;-69
2021/12/21 13:12:09;;;;;;;;;;;;;;;;;;5080414;28;19931;-68
2021/12/21 13:14:39;;;;;;;;;;;;;;;;;;5071583;28;19924;-68
2021/12/21 13:17:11;;;;;;;;;;;;;;;;;;5088037;28;19935;-71
2021/12/21 13:19:42;;;;;;;;;;;;;;;;;;5084474;28;20405;-71
2021/12/21 13:22:11;;;;;;;;;;;;;;;;;;5090181;28;19934;-71
2021/12/21 13:24:43;;;;;;;;;;;;;;;;;;5089694;28;19992;-71
2021/12/21 13:27:13;;;;;;;;;;;;;;;;;;5086577;28;19924;-70
2021/12/21 13:29:43;;;;;;;;;;;;;;;;;;5087865;28;19924;-70
2021/12/21 13:32:14;;;;;;;;;;;;;;;;;;5079905;28;20287;-68
2021/12/21 13:34:45;;;;;;;;;;;;;;;;;;5086170;28;19935;-68
2021/12/21 13:37:19;;;;;;;;;;;;;;;;;;5069784;28;19969;-70
2021/12/21 13:39:57;;;;;;;;;;;;;;;;;;5086938;28;19924;-70
2021/12/21 13:42:30;;;;;;;;;;;;;;;;;;5068520;28;19932;-70
2021/12/21 13:45:03;;;;;;;;;;;;;;;;;;5084265;28;19928;-70
2021/12/21 13:47:32;;;;;;;;;;;;;;;;;;5079054;28;19935;-71
2021/12/21 13:50:01;;;;;;;;;;;;;;;;;;5084766;28;19932;-71
2021/12/21 13:52:32;;;;;;;;;;;;;;;;;;5095241;28;20372;-70
2021/12/21 13:55:00;;;;;;;;;;;;;;;;;;5087304;28;20519;-70
2021/12/21 13:57:43;;;;;;;;;;;;;;;;;;5084283;28;20016;-70
2021/12/21 14:00:12;;;;;;;;;;;;;;;;;;5087373;28;19993;-70
2021/12/21 14:03:16;;;;;;;;;;;;;;;;;;5088510;28;19928;-70
2021/12/21 14:05:46;;;;;;;;;;;;;;;;;;5085799;28;19935;-68
2021/12/21 14:08:15;;;;;;;;;;;;;;;;;;5084117;28;19932;-68
2021/12/21 14:10:46;;;;;;;;;;;;;;;;;;5078155;28;19925;-70
2021/12/21 14:13:16;;;;;;;;;;;;;;;;;;5082035;28;19951;-70
2021/12/21 14:15:47;;;;;;;;;;;;;;;;;;5086351;28;20028;-70
2021/12/21 14:18:16;;;;;;;;;;;;;;;;;;5086449;28;19924;-70
2021/12/21 14:20:46;;;;;;;;;;;;;;;;;;5080977;28;19924;-70
2021/12/21 14:23:18;;;;;;;;;;;;;;;;;;5086194;28;20027;-70
2021/12/21 14:25:47;;;;;;;;;;;;;;;;;;5080078;28;19928;-72
2021/12/21 14:28:19;;;;;;;;;;;;;;;;;;5089026;28;19935;-68
2021/12/21 14:30:47;;;;;;;;;;;;;;;;;;5086985;28;19936;-70
2021/12/21 14:33:28;;;;;;;;;;;;;;;;;;5082363;28;19932;-72
2021/12/21 14:36:00;;;;;;;;;;;;;;;;;;5083640;28;19935;-70
2021/12/21 14:38:33;;;;;;;;;;;;;;;;;;5083810;28;19925;-70
2021/12/21 14:41:04;;;;;;;;;;;;;;;;;;5080303;28;19932;-72
2021/12/21 14:43:35;;;;;;;;;;;;;;;;;;5082240;28;20329;-72
2021/12/21 14:46:09;;;;;;;;;;;;;;;;;;5078747;28;19924;-71
2021/12/21 14:48:37;;;;;;;;;;;;;;;;;;5086495;28;19959;-71
2021/12/21 14:51:13;;;;;;;;;;;;;;;;;;5075344;28;20456;-71
2021/12/21 14:53:50;;;;;;;;;;;;;;;;;;5084019;28;19924;-71
2021/12/21 14:56:21;;;;;;;;;;;;;;;;;;5086656;28;20473;-70
2021/12/21 14:58:53;;;;;;;;;;;;;;;;;;5084138;28;19935;-69
2021/12/21 15:01:28;;;;;;;;;;;;;;;;;;5084753;28;19928;-69
2021/12/21 15:03:58;;;;;;;;;;;;;;;;;;5063445;28;19923;-69
2021/12/21 15:06:29;;;;;;;;;;;;;;;;;;5084596;28;19932;-69
2021/12/21 15:09:03;;;;;;;;;;;;;;;;;;5070609;28;20368;-69
2021/12/21 15:11:41;;;;;;;;;;;;;;;;;;5063631;28;20010;-69
2021/12/21 15:14:11;;;;;;;;;;;;;;;;;;5078001;28;19924;-69
2021/12/21 15:16:39;;;;;;;;;;;;;;;;;;5080708;28;19939;-70
2021/12/21 15:19:08;;;;;;;;;;;;;;;;;;5077190;28;19935;-68
2021/12/21 15:21:40;;;;;;;;;;;;;;;;;;5073338;28;20029;-68
2021/12/21 15:24:12;;;;;;;;;;;;;;;;;;5081414;28;19924;-68
2021/12/21 15:26:46;;;;;;;;;;;;;;;;;;5084823;28;19925;-68
2021/12/21 15:29:15;;;;;;;;;;;;;;;;;;5076942;28;20001;-67
2021/12/21 15:31:53;;;;;;;;;;;;;;;;;;5062496;28;19925;-68
2021/12/21 15:34:25;;;;;;;;;;;;;;;;;;5083868;28;20294;-68
2021/12/21 15:37:05;;;;;;;;;;;;;;;;;;5085655;28;19936;-68
2021/12/21 15:39:37;;;;;;;;;;;;;;;;;;5081388;28;19924;-68
2021/12/21 15:42:16;;;;;;;;;;;;;;;;;;5085866;28;20018;-68
2021/12/21 15:44:49;;;;;;;;;;;;;;;;;;5074613;28;20380;-68
2021/12/21 15:47:20;;;;;;;;;;;;;;;;;;5082874;28;19924;-68
2021/12/21 15:49:50;;;;;;;;;;;;;;;;;;5063443;28;19945;-68
2021/12/21 15:52:24;;;;;;;;;;;;;;;;;;5082946;28;19957;-69
2021/12/21 15:54:54;;;;;;;;;;;;;;;;;;5068183;28;19939;-69
2021/12/21 15:57:26;;;;;;;;;;;;;;;;;;5076791;28;19929;-69
2021/12/21 16:00:03;;;;;;;;;;;;;;;;;;5079478;28;20349;-68
2021/12/21 16:02:35;;;;;;;;;;;;;;;;;;5082895;28;19935;-68
2021/12/21 16:05:05;;;;;;;;;;;;;;;;;;5082840;28;19924;-69
2021/12/21 16:07:36;;;;;;;;;;;;;;;;;;5072912;28;19935;-69
2021/12/21 16:10:19;;;;;;;;;;;;;;;;;;5078679;28;20084;-69
2021/12/21 16:12:49;;;;;;;;;;;;;;;;;;5083580;28;20584;-69
2021/12/21 16:15:19;;;;;;;;;;;;;;;;;;5083274;28;19935;-69
2021/12/21 16:17:50;;;;;;;;;;;;;;;;;;5078064;28;19996;-70
2021/12/21 16:20:19;;;;;;;;;;;;;;;;;;5063544;28;20011;-69
2021/12/21 16:22:49;;;;;;;;;;;;;;;;;;5073644;28;19924;-69
2021/12/21 16:25:18;;;;;;;;;;;;;;;;;;5077006;28;19928;-69
2021/12/21 16:27:48;;;;;;;;;;;;;;;;;;5078049;28;20010;-69
2021/12/21 16:30:21;;;;;;;;;;;;;;;;;;5063364;28;19928;-70
2021/12/21 16:32:52;;;;;;;;;;;;;;;;;;5073230;28;19939;-69
2021/12/21 16:35:22;;;;;;;;;;;;;;;;;;5081491;28;19924;-69
2021/12/21 16:37:51;;;;;;;;;;;;;;;;;;5080866;28;19927;-69
2021/12/21 16:40:26;;;;;;;;;;;;;;;;;;5070689;28;19924;-69
2021/12/21 16:43:00;;;;;;;;;;;;;;;;;;5079578;28;19928;-70
2021/12/21 16:45:32;;;;;;;;;;;;;;;;;;5082037;28;19924;-70
2021/12/21 16:48:03;;;;;;;;;;;;;;;;;;5075660;28;19928;-68
2021/12/21 16:50:32;;;;;;;;;;;;;;;;;;5082047;28;19932;-68
2021/12/21 16:53:03;;;;;;;;;;;;;;;;;;5084336;28;19939;-69
2021/12/21 16:55:32;;;;;;;;;;;;;;;;;;5082050;28;19925;-68
2021/12/21 16:58:03;;;;;;;;;;;;;;;;;;5082284;28;19931;-69
2021/12/21 17:00:34;;;;;;;;;;;;;;;;;;5082048;28;19935;-69
2021/12/21 17:03:05;;;;;;;;;;;;;;;;;;5076126;28;19928;-69
2021/12/21 17:05:35;;;;;;;;;;;;;;;;;;5082936;28;20406;-68
2021/12/21 17:08:07;;;;;;;;;;;;;;;;;;5078023;28;19932;-68
2021/12/21 17:10:44;;;;;;;;;;;;;;;;;;5088097;28;19924;-69
2021/12/21 17:13:15;;;;;;;;;;;;;;;;;;5079702;28;19982;-69
2021/12/21 17:15:46;;;;;;;;;;;;;;;;;;5077696;28;20227;-69
2021/12/21 17:18:16;;;;;;;;;;;;;;;;;;5084530;28;19928;-69
2021/12/21 17:20:48;;;;;;;;;;;;;;;;;;5083010;28;19985;-69
2021/12/21 17:23:15;;;;;;;;;;;;;;;;;;5085279;28;19938;-69
2021/12/21 17:25:45;;;;;;;;;;;;;;;;;;5084384;28;19928;-69
2021/12/21 17:28:18;;;;;;;;;;;;;;;;;;5087772;28;20381;-69
2021/12/21 17:30:48;;;;;;;;;;;;;;;;;;5084429;28;19943;-69
2021/12/21 17:33:19;;;;;;;;;;;;;;;;;;5081557;28;20487;-69
2021/12/21 17:35:53;;;;;;;;;;;;;;;;;;5082498;28;20277;-69
2021/12/21 17:38:29;;;;;;;;;;;;;;;;;;5080723;28;19931;-69
2021/12/21 17:41:01;;;;;;;;;;;;;;;;;;5062605;28;19928;-69
2021/12/21 17:43:29;;;;;;;;;;;;;;;;;;5081698;28;19923;-68
2021/12/21 17:46:00;;;;;;;;;;;;;;;;;;5074750;28;20369;-68
2021/12/21 17:48:28;;;;;;;;;;;;;;;;;;5080868;28;19932;-68
2021/12/21 17:51:10;;;;;;;;;;;;;;;;;;5077200;28;20029;-68
2021/12/21 17:53:40;;;;;;;;;;;;;;;;;;5085627;28;19931;-68
2021/12/21 17:56:14;;;;;;;;;;;;;;;;;;5080556;28;19933;-69
2021/12/21 17:58:45;;;;;;;;;;;;;;;;;;5068400;28;20352;-69
2021/12/21 18:01:17;;;;;;;;;;;;;;;;;;5087139;28;19928;-68
2021/12/21 18:03:47;;;;;;;;;;;;;;;;;;5067826;28;19933;-68
2021/12/21 18:06:20;;;;;;;;;;;;;;;;;;5090494;28;20299;-68
2021/12/21 18:08:51;;;;;;;;;;;;;;;;;;5087685;28;19981;-69
2021/12/21 18:11:22;;;;;;;;;;;;;;;;;;5083659;28;20387;-69
2021/12/21 18:14:06;;;;;;;;;;;;;;;;;;5082462;28;20062;-68